sensor_id;sensor_type;location;lat;lon;timestamp;temperature;humidity
11577;DHT22;5844;51.496;6.788;2023-03-30T00:00:58;13.70;1.00
11577;DHT22;5844;51.496;6.788;2023-03-30T00:03:25;13.70;1.00
11577;DHT22;5844;51.496;6.788;2023-03-30T00:05:52;13.70;8.30
11577;DHT22;5844;51.496;6.788;2023-03-30T00:08:21;13.80;27.40
11577;DHT22;5844;51.496;6.788;2023-03-30T00:11:03;13.80;42.30
11577;DHT22;5844;51.496;6.788;2023-03-30T00:13:31;13.80;99.90
11577;DHT22;5844;51.496;6.788;2023-03-30T00:15:57;13.80;99.90
11577;DHT22;5844;51.496;6.788;2023-03-30T00:18:23;13.80;86.90
11577;DHT22;5844;51.496;6.788;2023-03-30T00:20:50;14.00;90.30
11577;DHT22;5844;51.496;6.788;2023-03-30T00:23:17;14.00;94.70
11577;DHT22;5844;51.496;6.788;2023-03-30T00:25:43;14.00;91.80
11577;DHT22;5844;51.496;6.788;2023-03-30T00:28:09;14.00;99.90
11577;DHT22;5844;51.496;6.788;2023-03-30T00:30:35;14.00;99.90
11577;DHT22;5844;51.496;6.788;2023-03-30T00:33:02;14.00;99.90
11577;DHT22;5844;51.496;6.788;2023-03-30T00:35:27;14.00;99.90
11577;DHT22;5844;51.496;6.788;2023-03-30T00:37:55;14.00;99.90
11577;DHT22;5844;51.496;6.788;2023-03-30T00:40:21;14.00;97.90
11577;DHT22;5844;51.496;6.788;2023-03-30T00:42:48;14.00;99.90
11577;DHT22;5844;51.496;6.788;2023-03-30T00:47:59;14.00;99.90
11577;DHT22;5844;51.496;6.788;2023-03-30T00:50:49;14.00;99.90
11577;DHT22;5844;51.496;6.788;2023-03-30T00:53:23;13.90;99.90
11577;DHT22;5844;51.496;6.788;2023-03-30T00:55:51;13.80;99.90
11577;DHT22;5844;51.496;6.788;2023-03-30T00:58:18;13.90;99.90
11577;DHT22;5844;51.496;6.788;2023-03-30T01:00:45;13.90;99.90
11577;DHT22;5844;51.496;6.788;2023-03-30T01:03:33;13.90;99.90
11577;DHT22;5844;51.496;6.788;2023-03-30T01:06:03;14.00;99.90
11577;DHT22;5844;51.496;6.788;2023-03-30T01:08:30;13.90;99.90
11577;DHT22;5844;51.496;6.788;2023-03-30T01:11:00;13.90;99.90
11577;DHT22;5844;51.496;6.788;2023-03-30T01:13:27;14.00;99.90
11577;DHT22;5844;51.496;6.788;2023-03-30T01:18:28;14.00;99.90
11577;DHT22;5844;51.496;6.788;2023-03-30T01:26:47;14.00;99.90
11577;DHT22;5844;51.496;6.788;2023-03-30T01:41:00;14.20;99.90
11577;DHT22;5844;51.496;6.788;2023-03-30T01:43:55;14.10;99.90
11577;DHT22;5844;51.496;6.788;2023-03-30T01:46:39;14.20;99.90
11577;DHT22;5844;51.496;6.788;2023-03-30T01:49:21;14.10;99.90
11577;DHT22;5844;51.496;6.788;2023-03-30T01:52:00;14.10;99.90
11577;DHT22;5844;51.496;6.788;2023-03-30T01:54:37;14.10;99.90
11577;DHT22;5844;51.496;6.788;2023-03-30T01:57:11;14.00;99.90
11577;DHT22;5844;51.496;6.788;2023-03-30T01:59:55;14.00;99.90
11577;DHT22;5844;51.496;6.788;2023-03-30T02:02:23;14.10;99.90
11577;DHT22;5844;51.496;6.788;2023-03-30T02:04:51;14.10;99.90
11577;DHT22;5844;51.496;6.788;2023-03-30T02:07:21;14.20;99.90
11577;DHT22;5844;51.496;6.788;2023-03-30T02:09:50;14.20;99.90
11577;DHT22;5844;51.496;6.788;2023-03-30T02:12:18;14.20;99.90
11577;DHT22;5844;51.496;6.788;2023-03-30T02:14:45;14.30;99.90
11577;DHT22;5844;51.496;6.788;2023-03-30T02:17:19;14.20;99.90
11577;DHT22;5844;51.496;6.788;2023-03-30T02:19:45;14.20;99.90
11577;DHT22;5844;51.496;6.788;2023-03-30T02:22:12;14.20;99.90
11577;DHT22;5844;51.496;6.788;2023-03-30T02:24:40;14.30;99.90
11577;DHT22;5844;51.496;6.788;2023-03-30T02:27:06;14.30;99.90
11577;DHT22;5844;51.496;6.788;2023-03-30T02:29:33;14.30;99.90
11577;DHT22;5844;51.496;6.788;2023-03-30T02:32:01;14.40;99.90
11577;DHT22;5844;51.496;6.788;2023-03-30T02:51:46;14.40;99.90
11577;DHT22;5844;51.496;6.788;2023-03-30T02:57:10;14.40;99.90
11577;DHT22;5844;51.496;6.788;2023-03-30T02:59:45;14.30;99.90
11577;DHT22;5844;51.496;6.788;2023-03-30T03:02:20;14.20;99.90
11577;DHT22;5844;51.496;6.788;2023-03-30T03:04:49;14.20;99.90
11577;DHT22;5844;51.496;6.788;2023-03-30T03:07:19;14.10;99.90
11577;DHT22;5844;51.496;6.788;2023-03-30T03:09:46;14.00;99.90
11577;DHT22;5844;51.496;6.788;2023-03-30T03:12:11;14.00;99.90
11577;DHT22;5844;51.496;6.788;2023-03-30T03:14:38;14.00;99.90
11577;DHT22;5844;51.496;6.788;2023-03-30T03:17:04;14.00;99.90
11577;DHT22;5844;51.496;6.788;2023-03-30T03:19:30;14.10;99.90
11577;DHT22;5844;51.496;6.788;2023-03-30T03:21:56;14.10;99.90
11577;DHT22;5844;51.496;6.788;2023-03-30T03:24:22;14.10;99.90
11577;DHT22;5844;51.496;6.788;2023-03-30T03:26:48;14.20;99.90
11577;DHT22;5844;51.496;6.788;2023-03-30T03:29:13;14.30;99.90
11577;DHT22;5844;51.496;6.788;2023-03-30T03:31:39;14.30;99.90
11577;DHT22;5844;51.496;6.788;2023-03-30T03:34:05;14.30;99.90
11577;DHT22;5844;51.496;6.788;2023-03-30T03:36:31;14.40;99.90
11577;DHT22;5844;51.496;6.788;2023-03-30T03:38:57;14.40;99.90
11577;DHT22;5844;51.496;6.788;2023-03-30T03:41:22;14.50;99.90
11577;DHT22;5844;51.496;6.788;2023-03-30T03:43:48;14.50;99.90
11577;DHT22;5844;51.496;6.788;2023-03-30T03:46:14;14.60;99.90
11577;DHT22;5844;51.496;6.788;2023-03-30T03:48:39;14.70;99.90
11577;DHT22;5844;51.496;6.788;2023-03-30T03:51:05;14.80;99.90
11577;DHT22;5844;51.496;6.788;2023-03-30T03:53:31;14.80;99.90
11577;DHT22;5844;51.496;6.788;2023-03-30T03:55:57;14.80;99.90
11577;DHT22;5844;51.496;6.788;2023-03-30T03:58:24;14.90;99.90
11577;DHT22;5844;51.496;6.788;2023-03-30T04:00:50;15.10;99.90
11577;DHT22;5844;51.496;6.788;2023-03-30T04:03:16;15.20;99.90
11577;DHT22;5844;51.496;6.788;2023-03-30T04:05:42;15.20;99.90
11577;DHT22;5844;51.496;6.788;2023-03-30T04:08:08;15.20;99.90
11577;DHT22;5844;51.496;6.788;2023-03-30T04:10:36;15.20;99.90
11577;DHT22;5844;51.496;6.788;2023-03-30T04:13:02;15.20;99.90
11577;DHT22;5844;51.496;6.788;2023-03-30T04:15:28;15.20;99.90
11577;DHT22;5844;51.496;6.788;2023-03-30T04:17:54;15.20;99.90
11577;DHT22;5844;51.496;6.788;2023-03-30T04:20:24;15.20;99.90
11577;DHT22;5844;51.496;6.788;2023-03-30T04:22:50;15.30;99.90
11577;DHT22;5844;51.496;6.788;2023-03-30T04:25:21;15.30;99.90
11577;DHT22;5844;51.496;6.788;2023-03-30T04:27:51;15.30;99.90
11577;DHT22;5844;51.496;6.788;2023-03-30T04:30:17;15.40;99.90
11577;DHT22;5844;51.496;6.788;2023-03-30T04:32:44;15.40;99.90
11577;DHT22;5844;51.496;6.788;2023-03-30T04:35:12;15.40;99.90
11577;DHT22;5844;51.496;6.788;2023-03-30T04:37:39;15.50;99.90
11577;DHT22;5844;51.496;6.788;2023-03-30T04:40:07;15.50;99.90
11577;DHT22;5844;51.496;6.788;2023-03-30T04:42:38;15.50;99.90
11577;DHT22;5844;51.496;6.788;2023-03-30T04:45:07;15.50;99.90
11577;DHT22;5844;51.496;6.788;2023-03-30T04:47:34;15.50;99.90
11577;DHT22;5844;51.496;6.788;2023-03-30T04:50:00;15.40;99.90
11577;DHT22;5844;51.496;6.788;2023-03-30T04:52:27;15.50;99.90
11577;DHT22;5844;51.496;6.788;2023-03-30T04:54:53;15.50;99.90
11577;DHT22;5844;51.496;6.788;2023-03-30T04:57:18;15.50;99.90
11577;DHT22;5844;51.496;6.788;2023-03-30T04:59:44;15.50;99.90
11577;DHT22;5844;51.496;6.788;2023-03-30T05:02:11;15.50;99.90
11577;DHT22;5844;51.496;6.788;2023-03-30T05:04:38;15.40;99.90
11577;DHT22;5844;51.496;6.788;2023-03-30T05:07:04;15.30;99.90
11577;DHT22;5844;51.496;6.788;2023-03-30T05:09:31;15.30;99.90
11577;DHT22;5844;51.496;6.788;2023-03-30T05:11:56;15.40;99.90
11577;DHT22;5844;51.496;6.788;2023-03-30T05:14:22;15.30;99.90
11577;DHT22;5844;51.496;6.788;2023-03-30T05:16:47;15.30;92.10
11577;DHT22;5844;51.496;6.788;2023-03-30T05:19:13;15.20;90.60
11577;DHT22;5844;51.496;6.788;2023-03-30T05:21:39;15.20;91.80
11577;DHT22;5844;51.496;6.788;2023-03-30T05:24:05;15.20;94.60
11577;DHT22;5844;51.496;6.788;2023-03-30T05:26:31;15.20;94.10
11577;DHT22;5844;51.496;6.788;2023-03-30T05:28:57;15.20;94.50
11577;DHT22;5844;51.496;6.788;2023-03-30T05:31:22;15.20;95.30
11577;DHT22;5844;51.496;6.788;2023-03-30T05:33:48;15.30;91.70
11577;DHT22;5844;51.496;6.788;2023-03-30T05:36:14;15.30;90.30
11577;DHT22;5844;51.496;6.788;2023-03-30T05:38:40;15.30;90.10
11577;DHT22;5844;51.496;6.788;2023-03-30T05:41:06;15.20;88.60
11577;DHT22;5844;51.496;6.788;2023-03-30T05:43:32;15.20;90.90
11577;DHT22;5844;51.496;6.788;2023-03-30T05:45:58;15.20;88.70
11577;DHT22;5844;51.496;6.788;2023-03-30T05:48:24;15.20;88.00
11577;DHT22;5844;51.496;6.788;2023-03-30T05:50:49;15.10;87.40
11577;DHT22;5844;51.496;6.788;2023-03-30T05:53:15;15.00;88.20
11577;DHT22;5844;51.496;6.788;2023-03-30T05:55:48;14.90;90.60
11577;DHT22;5844;51.496;6.788;2023-03-30T05:58:14;14.90;90.70
11577;DHT22;5844;51.496;6.788;2023-03-30T06:00:41;14.90;90.60
11577;DHT22;5844;51.496;6.788;2023-03-30T06:03:08;15.00;91.20
11577;DHT22;5844;51.496;6.788;2023-03-30T06:05:35;15.00;95.90
11577;DHT22;5844;51.496;6.788;2023-03-30T06:08:04;15.10;88.40
11577;DHT22;5844;51.496;6.788;2023-03-30T06:10:29;15.10;90.00
11577;DHT22;5844;51.496;6.788;2023-03-30T06:12:55;15.20;90.00
11577;DHT22;5844;51.496;6.788;2023-03-30T06:15:21;15.20;92.00
11577;DHT22;5844;51.496;6.788;2023-03-30T06:17:47;15.20;86.80
11577;DHT22;5844;51.496;6.788;2023-03-30T06:20:13;15.20;87.90
11577;DHT22;5844;51.496;6.788;2023-03-30T06:22:39;15.20;85.50
11577;DHT22;5844;51.496;6.788;2023-03-30T06:25:09;15.20;91.20
11577;DHT22;5844;51.496;6.788;2023-03-30T06:27:36;15.20;86.90
11577;DHT22;5844;51.496;6.788;2023-03-30T06:30:02;15.20;88.30
11577;DHT22;5844;51.496;6.788;2023-03-30T06:32:28;15.20;80.60
11577;DHT22;5844;51.496;6.788;2023-03-30T06:34:54;15.30;77.10
11577;DHT22;5844;51.496;6.788;2023-03-30T06:37:20;15.20;90.80
11577;DHT22;5844;51.496;6.788;2023-03-30T06:39:45;15.30;90.90
11577;DHT22;5844;51.496;6.788;2023-03-30T06:42:11;15.30;91.30
11577;DHT22;5844;51.496;6.788;2023-03-30T06:44:37;15.30;89.20
11577;DHT22;5844;51.496;6.788;2023-03-30T06:47:04;15.30;88.90
11577;DHT22;5844;51.496;6.788;2023-03-30T06:49:30;15.40;79.80
11577;DHT22;5844;51.496;6.788;2023-03-30T06:51:56;15.40;76.60
11577;DHT22;5844;51.496;6.788;2023-03-30T06:54:23;15.40;80.80
11577;DHT22;5844;51.496;6.788;2023-03-30T06:56:49;15.40;82.40
11577;DHT22;5844;51.496;6.788;2023-03-30T06:59:15;15.40;82.70
11577;DHT22;5844;51.496;6.788;2023-03-30T07:01:41;15.40;78.70
11577;DHT22;5844;51.496;6.788;2023-03-30T07:04:08;15.30;80.80
11577;DHT22;5844;51.496;6.788;2023-03-30T07:06:34;15.40;79.20
11577;DHT22;5844;51.496;6.788;2023-03-30T07:09:00;15.40;76.20
11577;DHT22;5844;51.496;6.788;2023-03-30T07:11:27;15.40;77.50
11577;DHT22;5844;51.496;6.788;2023-03-30T07:13:52;15.50;66.60
11577;DHT22;5844;51.496;6.788;2023-03-30T07:16:23;15.40;70.40
11577;DHT22;5844;51.496;6.788;2023-03-30T07:18:49;15.50;69.00
11577;DHT22;5844;51.496;6.788;2023-03-30T07:21:14;15.50;76.90
11577;DHT22;5844;51.496;6.788;2023-03-30T07:23:40;15.50;67.90
11577;DHT22;5844;51.496;6.788;2023-03-30T07:26:07;15.50;60.80
11577;DHT22;5844;51.496;6.788;2023-03-30T07:28:34;15.40;73.20
11577;DHT22;5844;51.496;6.788;2023-03-30T07:31:10;15.40;72.70
11577;DHT22;5844;51.496;6.788;2023-03-30T07:33:38;15.40;71.30
11577;DHT22;5844;51.496;6.788;2023-03-30T07:36:04;15.30;61.00
11577;DHT22;5844;51.496;6.788;2023-03-30T07:38:30;15.20;65.90
11577;DHT22;5844;51.496;6.788;2023-03-30T07:40:56;15.20;55.30
11577;DHT22;5844;51.496;6.788;2023-03-30T07:43:22;15.10;59.00
11577;DHT22;5844;51.496;6.788;2023-03-30T07:45:48;15.10;59.60
11577;DHT22;5844;51.496;6.788;2023-03-30T07:48:13;15.10;58.50
11577;DHT22;5844;51.496;6.788;2023-03-30T07:50:39;15.20;57.90
11577;DHT22;5844;51.496;6.788;2023-03-30T07:53:05;15.10;57.00
11577;DHT22;5844;51.496;6.788;2023-03-30T07:55:30;15.10;56.80
11577;DHT22;5844;51.496;6.788;2023-03-30T07:57:57;15.10;55.20
11577;DHT22;5844;51.496;6.788;2023-03-30T08:00:23;15.20;52.50
11577;DHT22;5844;51.496;6.788;2023-03-30T08:02:51;15.20;56.60
11577;DHT22;5844;51.496;6.788;2023-03-30T08:05:17;15.10;49.20
11577;DHT22;5844;51.496;6.788;2023-03-30T08:07:43;15.00;47.40
11577;DHT22;5844;51.496;6.788;2023-03-30T08:10:10;14.90;47.30
11577;DHT22;5844;51.496;6.788;2023-03-30T08:12:36;14.90;50.10
11577;DHT22;5844;51.496;6.788;2023-03-30T08:15:03;14.90;48.50
11577;DHT22;5844;51.496;6.788;2023-03-30T08:17:29;14.80;44.30
11577;DHT22;5844;51.496;6.788;2023-03-30T08:19:55;14.60;44.60
11577;DHT22;5844;51.496;6.788;2023-03-30T08:22:21;14.60;44.10
11577;DHT22;5844;51.496;6.788;2023-03-30T08:24:47;14.70;41.50
11577;DHT22;5844;51.496;6.788;2023-03-30T08:27:13;14.70;39.40
11577;DHT22;5844;51.496;6.788;2023-03-30T08:29:39;14.70;36.80
11577;DHT22;5844;51.496;6.788;2023-03-30T08:32:05;14.70;35.00
11577;DHT22;5844;51.496;6.788;2023-03-30T08:34:31;14.60;39.30
11577;DHT22;5844;51.496;6.788;2023-03-30T08:36:56;14.60;35.60
11577;DHT22;5844;51.496;6.788;2023-03-30T08:39:22;14.60;34.00
11577;DHT22;5844;51.496;6.788;2023-03-30T08:44:48;14.80;51.50
11577;DHT22;5844;51.496;6.788;2023-03-30T08:47:25;15.00;39.10
11577;DHT22;5844;51.496;6.788;2023-03-30T08:50:28;14.90;31.80
11577;DHT22;5844;51.496;6.788;2023-03-30T08:52:54;14.90;31.80
11577;DHT22;5844;51.496;6.788;2023-03-30T09:00:37;14.80;44.70
11577;DHT22;5844;51.496;6.788;2023-03-30T09:03:15;14.80;48.70
11577;DHT22;5844;51.496;6.788;2023-03-30T09:05:47;14.90;59.00
11577;DHT22;5844;51.496;6.788;2023-03-30T09:08:18;14.80;65.30
11577;DHT22;5844;51.496;6.788;2023-03-30T09:10:51;14.80;62.70
11577;DHT22;5844;51.496;6.788;2023-03-30T09:13:19;14.70;58.10
11577;DHT22;5844;51.496;6.788;2023-03-30T09:15:56;14.70;53.70
11577;DHT22;5844;51.496;6.788;2023-03-30T09:18:33;14.90;54.40
11577;DHT22;5844;51.496;6.788;2023-03-30T09:21:01;15.10;52.50
11577;DHT22;5844;51.496;6.788;2023-03-30T09:23:29;14.90;49.60
11577;DHT22;5844;51.496;6.788;2023-03-30T09:31:10;15.20;38.80
11577;DHT22;5844;51.496;6.788;2023-03-30T09:33:48;15.30;37.80
11577;DHT22;5844;51.496;6.788;2023-03-30T09:36:42;15.50;63.20
11577;DHT22;5844;51.496;6.788;2023-03-30T09:39:20;15.60;42.20
11577;DHT22;5844;51.496;6.788;2023-03-30T09:47:25;15.70;51.70
11577;DHT22;5844;51.496;6.788;2023-03-30T09:49:56;15.80;44.30
11577;DHT22;5844;51.496;6.788;2023-03-30T09:52:25;16.00;44.90
11577;DHT22;5844;51.496;6.788;2023-03-30T09:54:51;16.10;45.00
11577;DHT22;5844;51.496;6.788;2023-03-30T09:59:48;15.90;5.30
11577;DHT22;5844;51.496;6.788;2023-03-30T10:05:02;15.60;20.80
11577;DHT22;5844;51.496;6.788;2023-03-30T10:07:34;15.60;25.40
11577;DHT22;5844;51.496;6.788;2023-03-30T10:10:15;15.50;23.30
11577;DHT22;5844;51.496;6.788;2023-03-30T10:12:41;15.40;20.10
11577;DHT22;5844;51.496;6.788;2023-03-30T10:15:14;15.40;24.50
11577;DHT22;5844;51.496;6.788;2023-03-30T10:17:40;15.40;24.70
11577;DHT22;5844;51.496;6.788;2023-03-30T10:20:32;15.30;24.40
11577;DHT22;5844;51.496;6.788;2023-03-30T10:23:10;15.50;27.70
11577;DHT22;5844;51.496;6.788;2023-03-30T10:25:40;15.70;14.00
11577;DHT22;5844;51.496;6.788;2023-03-30T10:28:16;15.70;10.30
11577;DHT22;5844;51.496;6.788;2023-03-30T10:30:51;15.70;8.90
11577;DHT22;5844;51.496;6.788;2023-03-30T10:33:17;15.60;7.90
11577;DHT22;5844;51.496;6.788;2023-03-30T10:35:46;15.50;7.00
11577;DHT22;5844;51.496;6.788;2023-03-30T10:38:13;15.50;10.90
11577;DHT22;5844;51.496;6.788;2023-03-30T10:40:41;15.60;10.20
11577;DHT22;5844;51.496;6.788;2023-03-30T10:43:18;15.60;10.10
11577;DHT22;5844;51.496;6.788;2023-03-30T10:45:50;15.50;7.10
11577;DHT22;5844;51.496;6.788;2023-03-30T10:48:33;15.40;8.10
11577;DHT22;5844;51.496;6.788;2023-03-30T10:54:09;15.70;1.00
11577;DHT22;5844;51.496;6.788;2023-03-30T10:56:44;15.70;1.00
11577;DHT22;5844;51.496;6.788;2023-03-30T10:59:24;15.70;1.00
11577;DHT22;5844;51.496;6.788;2023-03-30T11:02:52;16.40;1.70
11577;DHT22;5844;51.496;6.788;2023-03-30T11:05:18;16.80;1.00
11577;DHT22;5844;51.496;6.788;2023-03-30T11:08:05;16.80;1.00
11577;DHT22;5844;51.496;6.788;2023-03-30T11:10:35;17.20;1.00
11577;DHT22;5844;51.496;6.788;2023-03-30T11:13:10;17.70;1.00
11577;DHT22;5844;51.496;6.788;2023-03-30T11:15:55;17.30;8.00
11577;DHT22;5844;51.496;6.788;2023-03-30T11:21:27;17.50;4.90
11577;DHT22;5844;51.496;6.788;2023-03-30T11:24:02;16.90;4.10
11577;DHT22;5844;51.496;6.788;2023-03-30T11:27:02;16.60;3.10
11577;DHT22;5844;51.496;6.788;2023-03-30T11:32:31;16.40;1.00
11577;DHT22;5844;51.496;6.788;2023-03-30T11:35:14;16.90;1.00
11577;DHT22;5844;51.496;6.788;2023-03-30T11:37:47;17.40;1.00
11577;DHT22;5844;51.496;6.788;2023-03-30T11:40:21;18.60;1.00
11577;DHT22;5844;51.496;6.788;2023-03-30T11:42:48;18.10;1.00
11577;DHT22;5844;51.496;6.788;2023-03-30T11:56:25;16.30;1.00
11577;DHT22;5844;51.496;6.788;2023-03-30T11:59:16;16.80;1.00
11577;DHT22;5844;51.496;6.788;2023-03-30T12:04:47;18.80;1.00
11577;DHT22;5844;51.496;6.788;2023-03-30T12:09:53;18.40;1.00
11577;DHT22;5844;51.496;6.788;2023-03-30T12:12:35;17.50;1.00
11577;DHT22;5844;51.496;6.788;2023-03-30T12:15:12;17.60;1.00
11577;DHT22;5844;51.496;6.788;2023-03-30T12:17:59;18.30;1.00
11577;DHT22;5844;51.496;6.788;2023-03-30T12:23:21;19.20;1.00
11577;DHT22;5844;51.496;6.788;2023-03-30T12:26:09;18.30;1.00
11577;DHT22;5844;51.496;6.788;2023-03-30T12:31:19;16.60;1.00
11577;DHT22;5844;51.496;6.788;2023-03-30T12:33:50;16.30;1.00
11577;DHT22;5844;51.496;6.788;2023-03-30T12:36:35;15.90;1.00
11577;DHT22;5844;51.496;6.788;2023-03-30T12:39:05;15.30;1.00
11577;DHT22;5844;51.496;6.788;2023-03-30T12:41:46;15.00;1.00
11577;DHT22;5844;51.496;6.788;2023-03-30T12:46:54;14.00;1.00
11577;DHT22;5844;51.496;6.788;2023-03-30T12:52:24;13.30;1.00
11577;DHT22;5844;51.496;6.788;2023-03-30T13:00:35;13.10;99.90
11577;DHT22;5844;51.496;6.788;2023-03-30T13:05:43;13.50;99.90
11577;DHT22;5844;51.496;6.788;2023-03-30T13:08:23;14.00;99.90
11577;DHT22;5844;51.496;6.788;2023-03-30T13:11:18;14.80;99.90
11577;DHT22;5844;51.496;6.788;2023-03-30T13:13:59;15.50;99.90
11577;DHT22;5844;51.496;6.788;2023-03-30T13:17:09;15.60;1.00
11577;DHT22;5844;51.496;6.788;2023-03-30T13:24:53;18.90;99.90
11577;DHT22;5844;51.496;6.788;2023-03-30T13:27:34;17.80;1.00
11577;DHT22;5844;51.496;6.788;2023-03-30T13:30:12;17.30;1.00
11577;DHT22;5844;51.496;6.788;2023-03-30T13:38:46;18.40;1.00
11577;DHT22;5844;51.496;6.788;2023-03-30T13:46:52;18.40;99.90
11577;DHT22;5844;51.496;6.788;2023-03-30T13:49:31;17.80;1.00
11577;DHT22;5844;51.496;6.788;2023-03-30T13:52:45;18.60;1.00
11577;DHT22;5844;51.496;6.788;2023-03-30T13:54:51;19.60;1.00
11577;DHT22;5844;51.496;6.788;2023-03-30T13:57:22;19.90;89.90
11577;DHT22;5844;51.496;6.788;2023-03-30T13:59:59;19.70;73.40
11577;DHT22;5844;51.496;6.788;2023-03-30T14:02:28;19.80;1.00
11577;DHT22;5844;51.496;6.788;2023-03-30T14:04:54;18.70;1.00
11577;DHT22;5844;51.496;6.788;2023-03-30T14:07:40;18.30;99.90
11577;DHT22;5844;51.496;6.788;2023-03-30T14:10:13;18.50;99.90
11577;DHT22;5844;51.496;6.788;2023-03-30T14:12:40;19.10;96.90
11577;DHT22;5844;51.496;6.788;2023-03-30T14:15:21;19.20;78.10
11577;DHT22;5844;51.496;6.788;2023-03-30T14:17:54;18.80;99.90
11577;DHT22;5844;51.496;6.788;2023-03-30T14:20:43;18.30;1.00
11577;DHT22;5844;51.496;6.788;2023-03-30T14:23:27;17.80;1.00
11577;DHT22;5844;51.496;6.788;2023-03-30T14:26:00;17.40;99.90
11577;DHT22;5844;51.496;6.788;2023-03-30T14:28:28;17.20;1.00
11577;DHT22;5844;51.496;6.788;2023-03-30T14:31:01;16.90;99.90
11577;DHT22;5844;51.496;6.788;2023-03-30T14:33:30;16.30;1.00
11577;DHT22;5844;51.496;6.788;2023-03-30T14:36:00;15.50;88.90
11577;DHT22;5844;51.496;6.788;2023-03-30T14:38:30;14.90;1.00
11577;DHT22;5844;51.496;6.788;2023-03-30T14:40:59;14.70;1.00
11577;DHT22;5844;51.496;6.788;2023-03-30T14:43:28;15.20;1.00
11577;DHT22;5844;51.496;6.788;2023-03-30T14:45:58;16.20;1.00
11577;DHT22;5844;51.496;6.788;2023-03-30T14:48:29;16.60;11.40
11577;DHT22;5844;51.496;6.788;2023-03-30T14:50:56;17.30;15.10
11577;DHT22;5844;51.496;6.788;2023-03-30T14:53:25;18.70;24.60
11577;DHT22;5844;51.496;6.788;2023-03-30T14:55:52;19.70;13.90
11577;DHT22;5844;51.496;6.788;2023-03-30T14:58:23;20.50;1.00
11577;DHT22;5844;51.496;6.788;2023-03-30T15:00:56;21.40;1.00
11577;DHT22;5844;51.496;6.788;2023-03-30T15:03:26;21.70;1.00
11577;DHT22;5844;51.496;6.788;2023-03-30T15:05:53;20.80;1.00
11577;DHT22;5844;51.496;6.788;2023-03-30T15:08:23;19.30;1.00
11577;DHT22;5844;51.496;6.788;2023-03-30T15:11:05;18.30;1.00
11577;DHT22;5844;51.496;6.788;2023-03-30T15:13:39;17.50;1.00
11577;DHT22;5844;51.496;6.788;2023-03-30T15:16:06;16.90;1.00
11577;DHT22;5844;51.496;6.788;2023-03-30T15:18:33;16.60;1.00
11577;DHT22;5844;51.496;6.788;2023-03-30T15:21:00;16.20;1.00
11577;DHT22;5844;51.496;6.788;2023-03-30T15:23:34;15.60;1.00
11577;DHT22;5844;51.496;6.788;2023-03-30T15:26:02;14.40;1.00
11577;DHT22;5844;51.496;6.788;2023-03-30T15:28:34;13.30;99.90
11577;DHT22;5844;51.496;6.788;2023-03-30T15:31:02;13.00;99.90
11577;DHT22;5844;51.496;6.788;2023-03-30T15:33:34;13.20;99.90
11577;DHT22;5844;51.496;6.788;2023-03-30T15:36:24;13.80;99.90
11577;DHT22;5844;51.496;6.788;2023-03-30T15:38:57;15.40;99.90
11577;DHT22;5844;51.496;6.788;2023-03-30T15:41:45;16.40;99.90
11577;DHT22;5844;51.496;6.788;2023-03-30T15:44:19;16.40;99.90
11577;DHT22;5844;51.496;6.788;2023-03-30T15:46:48;18.50;1.00
11577;DHT22;5844;51.496;6.788;2023-03-30T15:49:17;18.80;1.00
11577;DHT22;5844;51.496;6.788;2023-03-30T15:51:46;19.10;1.00
11577;DHT22;5844;51.496;6.788;2023-03-30T15:54:18;18.60;1.00
11577;DHT22;5844;51.496;6.788;2023-03-30T15:56:58;18.20;1.00
11577;DHT22;5844;51.496;6.788;2023-03-30T15:59:37;18.60;1.00
11577;DHT22;5844;51.496;6.788;2023-03-30T16:02:19;18.10;1.00
11577;DHT22;5844;51.496;6.788;2023-03-30T16:04:45;17.00;1.00
11577;DHT22;5844;51.496;6.788;2023-03-30T16:07:16;16.90;1.00
11577;DHT22;5844;51.496;6.788;2023-03-30T16:09:42;17.70;1.00
11577;DHT22;5844;51.496;6.788;2023-03-30T16:12:13;18.50;1.00
11577;DHT22;5844;51.496;6.788;2023-03-30T16:14:39;18.80;1.00
11577;DHT22;5844;51.496;6.788;2023-03-30T16:17:05;18.60;1.00
11577;DHT22;5844;51.496;6.788;2023-03-30T16:19:31;18.20;1.00
11577;DHT22;5844;51.496;6.788;2023-03-30T16:21:57;17.30;1.00
11577;DHT22;5844;51.496;6.788;2023-03-30T16:24:22;16.40;1.00
11577;DHT22;5844;51.496;6.788;2023-03-30T16:26:48;15.80;1.00
11577;DHT22;5844;51.496;6.788;2023-03-30T16:29:19;15.50;1.00
11577;DHT22;5844;51.496;6.788;2023-03-30T16:31:46;15.40;1.00
11577;DHT22;5844;51.496;6.788;2023-03-30T16:34:12;15.30;1.00
11577;DHT22;5844;51.496;6.788;2023-03-30T16:36:38;15.10;1.00
11577;DHT22;5844;51.496;6.788;2023-03-30T16:39:11;14.90;1.00
11577;DHT22;5844;51.496;6.788;2023-03-30T16:41:40;14.80;1.00
11577;DHT22;5844;51.496;6.788;2023-03-30T16:44:06;14.60;1.00
11577;DHT22;5844;51.496;6.788;2023-03-30T16:46:31;14.50;1.00
11577;DHT22;5844;51.496;6.788;2023-03-30T16:48:58;14.40;1.00
11577;DHT22;5844;51.496;6.788;2023-03-30T16:51:23;14.40;1.00
11577;DHT22;5844;51.496;6.788;2023-03-30T16:53:49;14.30;1.00
11577;DHT22;5844;51.496;6.788;2023-03-30T16:56:16;14.30;1.00
11577;DHT22;5844;51.496;6.788;2023-03-30T16:58:43;13.80;99.90
11577;DHT22;5844;51.496;6.788;2023-03-30T17:01:10;13.40;99.90
11577;DHT22;5844;51.496;6.788;2023-03-30T17:03:37;13.10;99.90
11577;DHT22;5844;51.496;6.788;2023-03-30T17:06:04;13.00;99.90
11577;DHT22;5844;51.496;6.788;2023-03-30T17:08:30;12.80;99.90
11577;DHT22;5844;51.496;6.788;2023-03-30T17:10:57;12.70;99.90
11577;DHT22;5844;51.496;6.788;2023-03-30T17:13:29;12.60;99.90
11577;DHT22;5844;51.496;6.788;2023-03-30T17:15:56;12.30;99.90
11577;DHT22;5844;51.496;6.788;2023-03-30T17:18:24;12.20;99.90
11577;DHT22;5844;51.496;6.788;2023-03-30T17:20:53;12.10;99.90
11577;DHT22;5844;51.496;6.788;2023-03-30T17:23:19;12.00;99.90
11577;DHT22;5844;51.496;6.788;2023-03-30T17:25:46;11.90;99.90
11577;DHT22;5844;51.496;6.788;2023-03-30T17:28:22;11.80;99.90
11577;DHT22;5844;51.496;6.788;2023-03-30T17:30:49;11.80;99.90
11577;DHT22;5844;51.496;6.788;2023-03-30T17:33:15;11.80;99.90
11577;DHT22;5844;51.496;6.788;2023-03-30T17:35:45;11.80;99.90
11577;DHT22;5844;51.496;6.788;2023-03-30T17:38:13;11.80;99.90
11577;DHT22;5844;51.496;6.788;2023-03-30T17:40:41;11.90;99.90
11577;DHT22;5844;51.496;6.788;2023-03-30T17:43:08;12.00;99.90
11577;DHT22;5844;51.496;6.788;2023-03-30T17:45:36;12.10;99.90
11577;DHT22;5844;51.496;6.788;2023-03-30T17:48:04;12.00;99.90
11577;DHT22;5844;51.496;6.788;2023-03-30T17:50:34;12.10;99.90
11577;DHT22;5844;51.496;6.788;2023-03-30T17:53:00;12.10;99.90
11577;DHT22;5844;51.496;6.788;2023-03-30T17:55:29;12.10;99.90
11577;DHT22;5844;51.496;6.788;2023-03-30T17:57:56;12.10;99.90
11577;DHT22;5844;51.496;6.788;2023-03-30T18:00:32;12.10;99.90
11577;DHT22;5844;51.496;6.788;2023-03-30T18:03:00;12.00;99.90
11577;DHT22;5844;51.496;6.788;2023-03-30T18:05:27;12.00;99.90
11577;DHT22;5844;51.496;6.788;2023-03-30T18:07:54;12.00;99.90
11577;DHT22;5844;51.496;6.788;2023-03-30T18:10:33;12.00;99.90
11577;DHT22;5844;51.496;6.788;2023-03-30T18:12:59;12.10;99.90
11577;DHT22;5844;51.496;6.788;2023-03-30T18:15:26;12.10;99.90
11577;DHT22;5844;51.496;6.788;2023-03-30T18:17:56;12.10;99.90